sensor_id;sensor_type;location;lat;lon;timestamp;P1;durP1;ratioP1;P2;durP2;ratioP2
26951;SDS011;14507;52.418;13.398;2023-08-08T00:00:17;6.50;;;2.00;;
26951;SDS011;14507;52.418;13.398;2023-08-08T00:02:43;7.90;;;2.22;;
26951;SDS011;14507;52.418;13.398;2023-08-08T00:05:09;9.32;;;2.53;;
26951;SDS011;14507;52.418;13.398;2023-08-08T00:07:34;5.63;;;2.28;;
26951;SDS011;14507;52.418;13.398;2023-08-08T00:10:00;6.15;;;2.25;;
26951;SDS011;14507;52.418;13.398;2023-08-08T00:12:26;5.97;;;2.45;;
26951;SDS011;14507;52.418;13.398;2023-08-08T00:14:51;9.32;;;2.38;;
26951;SDS011;14507;52.418;13.398;2023-08-08T00:17:17;9.27;;;2.10;;
26951;SDS011;14507;52.418;13.398;2023-08-08T00:19:43;10.80;;;3.05;;
26951;SDS011;14507;52.418;13.398;2023-08-08T00:22:08;10.23;;;2.53;;
26951;SDS011;14507;52.418;13.398;2023-08-08T00:24:34;7.55;;;2.20;;
26951;SDS011;14507;52.418;13.398;2023-08-08T00:26:59;10.52;;;2.55;;
26951;SDS011;14507;52.418;13.398;2023-08-08T00:29:25;8.93;;;2.42;;
26951;SDS011;14507;52.418;13.398;2023-08-08T00:31:51;5.50;;;2.35;;
26951;SDS011;14507;52.418;13.398;2023-08-08T00:34:16;13.38;;;2.10;;
26951;SDS011;14507;52.418;13.398;2023-08-08T00:36:42;6.93;;;2.45;;
26951;SDS011;14507;52.418;13.398;2023-08-08T00:39:07;6.63;;;1.85;;
26951;SDS011;14507;52.418;13.398;2023-08-08T00:41:33;9.40;;;2.40;;
26951;SDS011;14507;52.418;13.398;2023-08-08T00:43:59;10.32;;;2.20;;
26951;SDS011;14507;52.418;13.398;2023-08-08T00:46:24;7.15;;;2.10;;
26951;SDS011;14507;52.418;13.398;2023-08-08T00:48:51;8.50;;;2.10;;
26951;SDS011;14507;52.418;13.398;2023-08-08T00:51:18;6.50;;;2.17;;
26951;SDS011;14507;52.418;13.398;2023-08-08T00:53:44;10.65;;;2.30;;
26951;SDS011;14507;52.418;13.398;2023-08-08T00:56:11;7.68;;;2.00;;
26951;SDS011;14507;52.418;13.398;2023-08-08T00:58:38;6.90;;;1.98;;
26951;SDS011;14507;52.418;13.398;2023-08-08T01:01:05;8.63;;;2.10;;
26951;SDS011;14507;52.418;13.398;2023-08-08T01:03:30;7.18;;;2.20;;
26951;SDS011;14507;52.418;13.398;2023-08-08T01:06:02;8.13;;;2.35;;
26951;SDS011;14507;52.418;13.398;2023-08-08T01:08:35;9.07;;;1.92;;
26951;SDS011;14507;52.418;13.398;2023-08-08T01:11:07;6.38;;;2.00;;
26951;SDS011;14507;52.418;13.398;2023-08-08T01:13:33;8.20;;;2.40;;
26951;SDS011;14507;52.418;13.398;2023-08-08T01:16:00;8.80;;;2.03;;
26951;SDS011;14507;52.418;13.398;2023-08-08T01:18:28;6.65;;;2.20;;
26951;SDS011;14507;52.418;13.398;2023-08-08T01:20:54;7.65;;;2.20;;
26951;SDS011;14507;52.418;13.398;2023-08-08T01:23:28;4.95;;;1.85;;
26951;SDS011;14507;52.418;13.398;2023-08-08T01:26:02;5.53;;;2.08;;
26951;SDS011;14507;52.418;13.398;2023-08-08T01:28:28;8.50;;;2.65;;
26951;SDS011;14507;52.418;13.398;2023-08-08T01:30:53;7.32;;;2.10;;
26951;SDS011;14507;52.418;13.398;2023-08-08T01:33:19;5.28;;;1.98;;
26951;SDS011;14507;52.418;13.398;2023-08-08T01:35:46;9.98;;;2.40;;
26951;SDS011;14507;52.418;13.398;2023-08-08T01:40:47;10.23;;;2.67;;
26951;SDS011;14507;52.418;13.398;2023-08-08T01:43:14;6.45;;;1.75;;
26951;SDS011;14507;52.418;13.398;2023-08-08T01:45:40;7.18;;;2.25;;
26951;SDS011;14507;52.418;13.398;2023-08-08T01:48:08;7.43;;;1.75;;
26951;SDS011;14507;52.418;13.398;2023-08-08T01:50:34;5.60;;;1.92;;
26951;SDS011;14507;52.418;13.398;2023-08-08T01:53:01;5.72;;;2.10;;
26951;SDS011;14507;52.418;13.398;2023-08-08T01:55:27;6.18;;;2.40;;
26951;SDS011;14507;52.418;13.398;2023-08-08T01:57:52;7.40;;;2.35;;
26951;SDS011;14507;52.418;13.398;2023-08-08T02:00:18;7.47;;;1.98;;
26951;SDS011;14507;52.418;13.398;2023-08-08T02:02:44;8.52;;;2.13;;
26951;SDS011;14507;52.418;13.398;2023-08-08T02:05:09;4.93;;;1.70;;
26951;SDS011;14507;52.418;13.398;2023-08-08T02:07:35;7.05;;;2.30;;
26951;SDS011;14507;52.418;13.398;2023-08-08T02:10:01;5.65;;;1.98;;
26951;SDS011;14507;52.418;13.398;2023-08-08T02:12:26;9.13;;;2.13;;
26951;SDS011;14507;52.418;13.398;2023-08-08T02:14:53;6.55;;;1.92;;
26951;SDS011;14507;52.418;13.398;2023-08-08T02:17:20;5.10;;;1.98;;
26951;SDS011;14507;52.418;13.398;2023-08-08T02:19:46;5.78;;;1.70;;
26951;SDS011;14507;52.418;13.398;2023-08-08T02:22:11;6.93;;;2.38;;
26951;SDS011;14507;52.418;13.398;2023-08-08T02:24:37;5.03;;;1.90;;
26951;SDS011;14507;52.418;13.398;2023-08-08T02:27:03;5.30;;;1.98;;
26951;SDS011;14507;52.418;13.398;2023-08-08T02:29:29;6.25;;;2.03;;
26951;SDS011;14507;52.418;13.398;2023-08-08T02:31:55;5.40;;;1.75;;
26951;SDS011;14507;52.418;13.398;2023-08-08T02:34:21;7.70;;;2.08;;
26951;SDS011;14507;52.418;13.398;2023-08-08T02:36:46;7.25;;;2.00;;
26951;SDS011;14507;52.418;13.398;2023-08-08T02:39:12;7.47;;;2.35;;
26951;SDS011;14507;52.418;13.398;2023-08-08T02:41:37;4.38;;;1.83;;
26951;SDS011;14507;52.418;13.398;2023-08-08T02:44:03;5.75;;;1.77;;
26951;SDS011;14507;52.418;13.398;2023-08-08T02:46:29;7.13;;;2.58;;
26951;SDS011;14507;52.418;13.398;2023-08-08T02:48:54;5.35;;;2.00;;
26951;SDS011;14507;52.418;13.398;2023-08-08T02:51:20;6.97;;;2.00;;
26951;SDS011;14507;52.418;13.398;2023-08-08T02:53:45;7.80;;;2.17;;
26951;SDS011;14507;52.418;13.398;2023-08-08T02:56:11;6.90;;;2.28;;
26951;SDS011;14507;52.418;13.398;2023-08-08T02:58:37;5.05;;;1.90;;
26951;SDS011;14507;52.418;13.398;2023-08-08T03:01:02;8.70;;;2.45;;
26951;SDS011;14507;52.418;13.398;2023-08-08T03:03:28;7.75;;;2.08;;
26951;SDS011;14507;52.418;13.398;2023-08-08T03:05:53;3.75;;;2.05;;
26951;SDS011;14507;52.418;13.398;2023-08-08T03:08:19;5.65;;;1.95;;
26951;SDS011;14507;52.418;13.398;2023-08-08T03:10:44;7.43;;;2.70;;
26951;SDS011;14507;52.418;13.398;2023-08-08T03:13:10;7.43;;;1.92;;
26951;SDS011;14507;52.418;13.398;2023-08-08T03:15:36;3.80;;;2.22;;
26951;SDS011;14507;52.418;13.398;2023-08-08T03:18:02;7.28;;;2.20;;
26951;SDS011;14507;52.418;13.398;2023-08-08T03:20:28;5.75;;;1.88;;
26951;SDS011;14507;52.418;13.398;2023-08-08T03:22:54;10.38;;;3.35;;
26951;SDS011;14507;52.418;13.398;2023-08-08T03:25:19;6.18;;;2.33;;
26951;SDS011;14507;52.418;13.398;2023-08-08T03:27:45;4.97;;;2.20;;
26951;SDS011;14507;52.418;13.398;2023-08-08T03:30:11;6.63;;;2.63;;
26951;SDS011;14507;52.418;13.398;2023-08-08T03:32:37;9.18;;;2.70;;
26951;SDS011;14507;52.418;13.398;2023-08-08T03:35:03;7.43;;;2.58;;
26951;SDS011;14507;52.418;13.398;2023-08-08T03:37:29;8.68;;;3.20;;
26951;SDS011;14507;52.418;13.398;2023-08-08T03:39:58;6.88;;;2.58;;
26951;SDS011;14507;52.418;13.398;2023-08-08T03:42:23;5.50;;;2.10;;
26951;SDS011;14507;52.418;13.398;2023-08-08T03:44:49;8.93;;;3.10;;
26951;SDS011;14507;52.418;13.398;2023-08-08T03:47:14;9.00;;;2.55;;
26951;SDS011;14507;52.418;13.398;2023-08-08T03:49:40;9.73;;;2.45;;
26951;SDS011;14507;52.418;13.398;2023-08-08T03:52:06;8.23;;;2.65;;
26951;SDS011;14507;52.418;13.398;2023-08-08T03:54:32;7.65;;;2.63;;
26951;SDS011;14507;52.418;13.398;2023-08-08T03:56:57;8.25;;;2.92;;
26951;SDS011;14507;52.418;13.398;2023-08-08T03:59:23;5.68;;;2.20;;
26951;SDS011;14507;52.418;13.398;2023-08-08T04:01:49;8.43;;;2.78;;
26951;SDS011;14507;52.418;13.398;2023-08-08T04:04:14;7.75;;;2.60;;
26951;SDS011;14507;52.418;13.398;2023-08-08T04:06:40;8.98;;;2.60;;
26951;SDS011;14507;52.418;13.398;2023-08-08T04:09:05;8.98;;;2.80;;
26951;SDS011;14507;52.418;13.398;2023-08-08T04:11:32;10.82;;;3.05;;
26951;SDS011;14507;52.418;13.398;2023-08-08T04:13:57;7.72;;;2.75;;
26951;SDS011;14507;52.418;13.398;2023-08-08T04:16:23;7.63;;;2.47;;
26951;SDS011;14507;52.418;13.398;2023-08-08T04:18:49;7.18;;;3.15;;
26951;SDS011;14507;52.418;13.398;2023-08-08T04:21:14;10.38;;;3.08;;
26951;SDS011;14507;52.418;13.398;2023-08-08T04:23:40;9.35;;;2.50;;
26951;SDS011;14507;52.418;13.398;2023-08-08T04:26:05;7.43;;;2.72;;
26951;SDS011;14507;52.418;13.398;2023-08-08T04:28:31;6.78;;;2.28;;
26951;SDS011;14507;52.418;13.398;2023-08-08T04:30:57;6.65;;;2.38;;
26951;SDS011;14507;52.418;13.398;2023-08-08T04:33:22;8.15;;;2.60;;
26951;SDS011;14507;52.418;13.398;2023-08-08T04:35:48;6.90;;;2.25;;
26951;SDS011;14507;52.418;13.398;2023-08-08T04:38:14;6.65;;;2.67;;
26951;SDS011;14507;52.418;13.398;2023-08-08T04:40:43;6.72;;;2.40;;
26951;SDS011;14507;52.418;13.398;2023-08-08T04:43:08;12.80;;;3.25;;
26951;SDS011;14507;52.418;13.398;2023-08-08T04:45:34;7.85;;;2.75;;
26951;SDS011;14507;52.418;13.398;2023-08-08T04:48:00;7.70;;;2.70;;
26951;SDS011;14507;52.418;13.398;2023-08-08T04:50:26;6.72;;;2.55;;
26951;SDS011;14507;52.418;13.398;2023-08-08T04:52:51;9.60;;;2.63;;
26951;SDS011;14507;52.418;13.398;2023-08-08T04:55:17;7.55;;;2.33;;
26951;SDS011;14507;52.418;13.398;2023-08-08T04:57:43;8.13;;;2.20;;
26951;SDS011;14507;52.418;13.398;2023-08-08T05:00:08;6.35;;;2.70;;
26951;SDS011;14507;52.418;13.398;2023-08-08T05:02:34;7.93;;;2.20;;
26951;SDS011;14507;52.418;13.398;2023-08-08T05:05:01;7.07;;;1.98;;
26951;SDS011;14507;52.418;13.398;2023-08-08T05:07:27;4.07;;;1.95;;
26951;SDS011;14507;52.418;13.398;2023-08-08T05:09:53;8.10;;;2.75;;
26951;SDS011;14507;52.418;13.398;2023-08-08T05:12:18;17.15;;;3.45;;
26951;SDS011;14507;52.418;13.398;2023-08-08T05:14:44;9.70;;;2.45;;
26951;SDS011;14507;52.418;13.398;2023-08-08T05:17:09;4.78;;;2.30;;
26951;SDS011;14507;52.418;13.398;2023-08-08T05:19:35;7.00;;;2.17;;
26951;SDS011;14507;52.418;13.398;2023-08-08T05:22:01;8.27;;;2.35;;
26951;SDS011;14507;52.418;13.398;2023-08-08T05:24:26;8.10;;;2.75;;
26951;SDS011;14507;52.418;13.398;2023-08-08T05:26:52;5.60;;;2.30;;
26951;SDS011;14507;52.418;13.398;2023-08-08T05:29:18;7.32;;;2.40;;
26951;SDS011;14507;52.418;13.398;2023-08-08T05:31:45;9.55;;;2.25;;
26951;SDS011;14507;52.418;13.398;2023-08-08T05:34:11;5.78;;;2.03;;
26951;SDS011;14507;52.418;13.398;2023-08-08T05:36:37;6.07;;;2.00;;
26951;SDS011;14507;52.418;13.398;2023-08-08T05:39:03;8.60;;;2.53;;
26951;SDS011;14507;52.418;13.398;2023-08-08T05:41:28;5.63;;;2.42;;
26951;SDS011;14507;52.418;13.398;2023-08-08T05:43:54;10.60;;;2.78;;
26951;SDS011;14507;52.418;13.398;2023-08-08T05:46:20;9.60;;;2.28;;
26951;SDS011;14507;52.418;13.398;2023-08-08T05:48:45;13.30;;;2.53;;
26951;SDS011;14507;52.418;13.398;2023-08-08T05:51:11;8.18;;;2.20;;
26951;SDS011;14507;52.418;13.398;2023-08-08T05:53:37;5.38;;;1.92;;
26951;SDS011;14507;52.418;13.398;2023-08-08T05:56:03;4.25;;;1.75;;
26951;SDS011;14507;52.418;13.398;2023-08-08T05:58:29;6.63;;;2.10;;
26951;SDS011;14507;52.418;13.398;2023-08-08T06:00:55;12.43;;;2.42;;
26951;SDS011;14507;52.418;13.398;2023-08-08T06:03:20;5.30;;;1.77;;
26951;SDS011;14507;52.418;13.398;2023-08-08T06:05:46;8.80;;;2.35;;
26951;SDS011;14507;52.418;13.398;2023-08-08T06:08:11;8.52;;;2.53;;
26951;SDS011;14507;52.418;13.398;2023-08-08T06:10:38;3.78;;;1.90;;
26951;SDS011;14507;52.418;13.398;2023-08-08T06:13:04;7.78;;;1.98;;
26951;SDS011;14507;52.418;13.398;2023-08-08T06:15:30;5.88;;;1.77;;
26951;SDS011;14507;52.418;13.398;2023-08-08T06:17:55;5.90;;;1.60;;
26951;SDS011;14507;52.418;13.398;2023-08-08T06:20:22;6.13;;;1.73;;
26951;SDS011;14507;52.418;13.398;2023-08-08T06:22:48;4.97;;;2.15;;
26951;SDS011;14507;52.418;13.398;2023-08-08T06:25:14;11.55;;;2.33;;
26951;SDS011;14507;52.418;13.398;2023-08-08T06:27:39;4.88;;;2.03;;
26951;SDS011;14507;52.418;13.398;2023-08-08T06:30:05;6.47;;;1.80;;
26951;SDS011;14507;52.418;13.398;2023-08-08T06:32:33;3.72;;;1.73;;
26951;SDS011;14507;52.418;13.398;2023-08-08T06:34:59;11.35;;;2.33;;
26951;SDS011;14507;52.418;13.398;2023-08-08T06:37:24;7.07;;;1.90;;
26951;SDS011;14507;52.418;13.398;2023-08-08T06:39:50;10.68;;;2.10;;
26951;SDS011;14507;52.418;13.398;2023-08-08T06:42:16;8.75;;;2.03;;
26951;SDS011;14507;52.418;13.398;2023-08-08T06:44:42;8.68;;;2.00;;
26951;SDS011;14507;52.418;13.398;2023-08-08T06:47:08;11.07;;;2.67;;
26951;SDS011;14507;52.418;13.398;2023-08-08T06:49:34;7.95;;;2.10;;
26951;SDS011;14507;52.418;13.398;2023-08-08T06:52:00;4.18;;;2.15;;
26951;SDS011;14507;52.418;13.398;2023-08-08T06:54:26;11.95;;;2.25;;
26951;SDS011;14507;52.418;13.398;2023-08-08T06:56:53;4.43;;;2.03;;
26951;SDS011;14507;52.418;13.398;2023-08-08T07:01:47;8.50;;;2.00;;
26951;SDS011;14507;52.418;13.398;2023-08-08T07:04:13;6.00;;;1.92;;
26951;SDS011;14507;52.418;13.398;2023-08-08T07:06:39;6.15;;;1.90;;
26951;SDS011;14507;52.418;13.398;2023-08-08T07:09:05;6.88;;;1.92;;
26951;SDS011;14507;52.418;13.398;2023-08-08T07:11:31;4.18;;;1.80;;
26951;SDS011;14507;52.418;13.398;2023-08-08T07:13:56;4.53;;;1.95;;
26951;SDS011;14507;52.418;13.398;2023-08-08T07:16:22;4.20;;;1.83;;
26951;SDS011;14507;52.418;13.398;2023-08-08T07:18:48;8.60;;;1.60;;
26951;SDS011;14507;52.418;13.398;2023-08-08T07:21:14;8.80;;;1.70;;
26951;SDS011;14507;52.418;13.398;2023-08-08T07:23:40;3.65;;;1.88;;
26951;SDS011;14507;52.418;13.398;2023-08-08T07:26:05;7.50;;;2.25;;
26951;SDS011;14507;52.418;13.398;2023-08-08T07:28:31;6.95;;;1.80;;
26951;SDS011;14507;52.418;13.398;2023-08-08T07:30:57;9.45;;;2.08;;
26951;SDS011;14507;52.418;13.398;2023-08-08T07:33:23;6.38;;;1.90;;
26951;SDS011;14507;52.418;13.398;2023-08-08T07:35:49;7.32;;;2.20;;
26951;SDS011;14507;52.418;13.398;2023-08-08T07:38:14;7.80;;;1.83;;
26951;SDS011;14507;52.418;13.398;2023-08-08T07:40:40;2.97;;;1.38;;
26951;SDS011;14507;52.418;13.398;2023-08-08T07:43:06;4.13;;;1.65;;
26951;SDS011;14507;52.418;13.398;2023-08-08T07:45:32;10.80;;;1.85;;
26951;SDS011;14507;52.418;13.398;2023-08-08T07:47:58;5.15;;;1.65;;
26951;SDS011;14507;52.418;13.398;2023-08-08T07:50:23;6.03;;;1.88;;
26951;SDS011;14507;52.418;13.398;2023-08-08T07:52:49;3.92;;;1.63;;
26951;SDS011;14507;52.418;13.398;2023-08-08T07:55:15;5.53;;;1.90;;
26951;SDS011;14507;52.418;13.398;2023-08-08T07:57:40;5.55;;;1.95;;
26951;SDS011;14507;52.418;13.398;2023-08-08T08:00:06;7.05;;;2.30;;
26951;SDS011;14507;52.418;13.398;2023-08-08T08:02:36;6.22;;;1.90;;
26951;SDS011;14507;52.418;13.398;2023-08-08T08:05:02;4.03;;;1.45;;
26951;SDS011;14507;52.418;13.398;2023-08-08T08:07:30;11.65;;;1.92;;
26951;SDS011;14507;52.418;13.398;2023-08-08T08:09:57;7.03;;;1.70;;
26951;SDS011;14507;52.418;13.398;2023-08-08T08:12:23;4.07;;;1.50;;
26951;SDS011;14507;52.418;13.398;2023-08-08T08:14:48;9.80;;;1.67;;
26951;SDS011;14507;52.418;13.398;2023-08-08T08:17:14;5.55;;;1.45;;
26951;SDS011;14507;52.418;13.398;2023-08-08T08:19:40;4.88;;;1.70;;
26951;SDS011;14507;52.418;13.398;2023-08-08T08:22:05;5.88;;;1.60;;
26951;SDS011;14507;52.418;13.398;2023-08-08T08:24:31;5.30;;;1.45;;
26951;SDS011;14507;52.418;13.398;2023-08-08T08:26:56;6.20;;;2.03;;
26951;SDS011;14507;52.418;13.398;2023-08-08T08:29:22;4.45;;;1.60;;
26951;SDS011;14507;52.418;13.398;2023-08-08T08:31:48;6.78;;;1.65;;
26951;SDS011;14507;52.418;13.398;2023-08-08T08:34:13;3.53;;;1.50;;
26951;SDS011;14507;52.418;13.398;2023-08-08T08:36:39;3.95;;;1.75;;
26951;SDS011;14507;52.418;13.398;2023-08-08T08:39:04;10.38;;;1.60;;
26951;SDS011;14507;52.418;13.398;2023-08-08T08:41:30;4.95;;;1.55;;
26951;SDS011;14507;52.418;13.398;2023-08-08T08:44:00;4.57;;;1.73;;
26951;SDS011;14507;52.418;13.398;2023-08-08T08:46:26;7.45;;;1.65;;
26951;SDS011;14507;52.418;13.398;2023-08-08T08:48:54;5.35;;;1.98;;
26951;SDS011;14507;52.418;13.398;2023-08-08T08:51:21;4.00;;;1.50;;
26951;SDS011;14507;52.418;13.398;2023-08-08T08:53:47;3.47;;;1.60;;
26951;SDS011;14507;52.418;13.398;2023-08-08T08:56:15;4.70;;;1.70;;
26951;SDS011;14507;52.418;13.398;2023-08-08T08:58:42;10.88;;;2.03;;
26951;SDS011;14507;52.418;13.398;2023-08-08T09:01:11;7.65;;;1.73;;
26951;SDS011;14507;52.418;13.398;2023-08-08T09:03:36;7.13;;;1.50;;
26951;SDS011;14507;52.418;13.398;2023-08-08T09:06:03;6.45;;;1.55;;
26951;SDS011;14507;52.418;13.398;2023-08-08T09:08:29;6.25;;;1.60;;
26951;SDS011;14507;52.418;13.398;2023-08-08T09:10:55;6.07;;;1.80;;
26951;SDS011;14507;52.418;13.398;2023-08-08T09:13:22;8.25;;;1.70;;
26951;SDS011;14507;52.418;13.398;2023-08-08T09:15:50;6.40;;;1.77;;
26951;SDS011;14507;52.418;13.398;2023-08-08T09:18:17;10.32;;;1.90;;
26951;SDS011;14507;52.418;13.398;2023-08-08T09:20:48;7.05;;;1.85;;
26951;SDS011;14507;52.418;13.398;2023-08-08T09:23:14;4.65;;;1.42;;
26951;SDS011;14507;52.418;13.398;2023-08-08T09:25:40;5.82;;;1.67;;
26951;SDS011;14507;52.418;13.398;2023-08-08T09:28:05;3.17;;;1.30;;
26951;SDS011;14507;52.418;13.398;2023-08-08T09:30:31;3.20;;;1.45;;
26951;SDS011;14507;52.418;13.398;2023-08-08T09:33:00;6.88;;;1.58;;
26951;SDS011;14507;52.418;13.398;2023-08-08T09:35:28;9.13;;;2.38;;
26951;SDS011;14507;52.418;13.398;2023-08-08T09:37:54;9.02;;;1.75;;
26951;SDS011;14507;52.418;13.398;2023-08-08T09:40:21;7.05;;;1.50;;
26951;SDS011;14507;52.418;13.398;2023-08-08T09:42:50;3.85;;;1.33;;
26951;SDS011;14507;52.418;13.398;2023-08-08T09:45:17;5.80;;;1.42;;
26951;SDS011;14507;52.418;13.398;2023-08-08T09:47:43;16.25;;;2.30;;
26951;SDS011;14507;52.418;13.398;2023-08-08T09:50:09;13.02;;;2.08;;
26951;SDS011;14507;52.418;13.398;2023-08-08T09:52:35;10.60;;;1.88;;
26951;SDS011;14507;52.418;13.398;2023-08-08T09:55:03;3.50;;;1.40;;
26951;SDS011;14507;52.418;13.398;2023-08-08T09:57:30;5.68;;;1.77;;
26951;SDS011;14507;52.418;13.398;2023-08-08T09:59:57;14.15;;;2.08;;
26951;SDS011;14507;52.418;13.398;2023-08-08T10:02:23;7.88;;;1.73;;
26951;SDS011;14507;52.418;13.398;2023-08-08T10:04:49;6.80;;;1.63;;
26951;SDS011;14507;52.418;13.398;2023-08-08T10:07:15;2.88;;;1.50;;
26951;SDS011;14507;52.418;13.398;2023-08-08T10:09:41;4.18;;;1.90;;
26951;SDS011;14507;52.418;13.398;2023-08-08T10:12:07;8.20;;;1.75;;
26951;SDS011;14507;52.418;13.398;2023-08-08T10:14:37;6.68;;;2.38;;
26951;SDS011;14507;52.418;13.398;2023-08-08T10:17:06;6.30;;;1.77;;
26951;SDS011;14507;52.418;13.398;2023-08-08T10:19:32;6.53;;;2.00;;
26951;SDS011;14507;52.418;13.398;2023-08-08T10:22:03;4.95;;;1.65;;
26951;SDS011;14507;52.418;13.398;2023-08-08T10:24:36;4.03;;;1.48;;
26951;SDS011;14507;52.418;13.398;2023-08-08T10:27:02;5.38;;;1.75;;
26951;SDS011;14507;52.418;13.398;2023-08-08T10:29:29;4.43;;;1.60;;
26951;SDS011;14507;52.418;13.398;2023-08-08T10:32:03;6.50;;;1.92;;
26951;SDS011;14507;52.418;13.398;2023-08-08T10:34:40;6.72;;;1.60;;
26951;SDS011;14507;52.418;13.398;2023-08-08T10:37:14;21.73;;;2.63;;
26951;SDS011;14507;52.418;13.398;2023-08-08T10:42:43;6.15;;;1.77;;
26951;SDS011;14507;52.418;13.398;2023-08-08T10:45:11;5.30;;;1.92;;
26951;SDS011;14507;52.418;13.398;2023-08-08T10:47:39;4.53;;;1.70;;
26951;SDS011;14507;52.418;13.398;2023-08-08T10:52:37;4.43;;;1.98;;
26951;SDS011;14507;52.418;13.398;2023-08-08T10:55:21;4.65;;;2.55;;
26951;SDS011;14507;52.418;13.398;2023-08-08T10:58:04;7.30;;;2.30;;
26951;SDS011;14507;52.418;13.398;2023-08-08T11:00:33;3.17;;;1.70;;
26951;SDS011;14507;52.418;13.398;2023-08-08T11:03:00;8.43;;;2.35;;
26951;SDS011;14507;52.418;13.398;2023-08-08T11:05:36;4.40;;;2.10;;
26951;SDS011;14507;52.418;13.398;2023-08-08T11:08:03;7.47;;;2.10;;
26951;SDS011;14507;52.418;13.398;2023-08-08T11:10:37;4.50;;;2.22;;
26951;SDS011;14507;52.418;13.398;2023-08-08T11:13:06;6.28;;;2.08;;
26951;SDS011;14507;52.418;13.398;2023-08-08T11:15:33;3.72;;;2.15;;
26951;SDS011;14507;52.418;13.398;2023-08-08T11:17:59;6.68;;;2.08;;
26951;SDS011;14507;52.418;13.398;2023-08-08T11:20:29;7.90;;;2.28;;
26951;SDS011;14507;52.418;13.398;2023-08-08T11:22:56;4.78;;;1.58;;
26951;SDS011;14507;52.418;13.398;2023-08-08T11:25:24;6.20;;;1.80;;
26951;SDS011;14507;52.418;13.398;2023-08-08T11:27:54;8.80;;;2.30;;
26951;SDS011;14507;52.418;13.398;2023-08-08T11:30:21;8.57;;;2.58;;
26951;SDS011;14507;52.418;13.398;2023-08-08T11:32:48;10.27;;;2.50;;
26951;SDS011;14507;52.418;13.398;2023-08-08T11:35:20;4.53;;;1.63;;
26951;SDS011;14507;52.418;13.398;2023-08-08T11:37:47;4.88;;;1.65;;
26951;SDS011;14507;52.418;13.398;2023-08-08T11:40:14;3.30;;;1.20;;
26951;SDS011;14507;52.418;13.398;2023-08-08T11:42:41;3.78;;;1.30;;
26951;SDS011;14507;52.418;13.398;2023-08-08T11:45:13;4.07;;;1.60;;
26951;SDS011;14507;52.418;13.398;2023-08-08T11:47:39;2.25;;;1.30;;
26951;SDS011;14507;52.418;13.398;2023-08-08T11:50:06;5.22;;;1.90;;
26951;SDS011;14507;52.418;13.398;2023-08-08T11:55:05;6.85;;;2.40;;
26951;SDS011;14507;52.418;13.398;2023-08-08T11:57:35;7.50;;;2.63;;
26951;SDS011;14507;52.418;13.398;2023-08-08T12:00:06;7.80;;;2.57;;
26951;SDS011;14507;52.418;13.398;2023-08-08T12:02:34;5.70;;;2.83;;
26951;SDS011;14507;52.418;13.398;2023-08-08T12:05:04;5.75;;;2.15;;
26951;SDS011;14507;52.418;13.398;2023-08-08T12:07:31;6.32;;;2.50;;
26951;SDS011;14507;52.418;13.398;2023-08-08T12:10:00;6.28;;;2.70;;
26951;SDS011;14507;52.418;13.398;2023-08-08T12:12:27;7.57;;;2.40;;
26951;SDS011;14507;52.418;13.398;2023-08-08T12:14:56;4.90;;;2.20;;
26951;SDS011;14507;52.418;13.398;2023-08-08T12:17:22;8.52;;;2.40;;
26951;SDS011;14507;52.418;13.398;2023-08-08T12:19:47;4.38;;;2.22;;
26951;SDS011;14507;52.418;13.398;2023-08-08T12:22:13;4.82;;;2.05;;
26951;SDS011;14507;52.418;13.398;2023-08-08T12:24:40;5.68;;;2.05;;
26951;SDS011;14507;52.418;13.398;2023-08-08T12:27:05;5.28;;;2.20;;
26951;SDS011;14507;52.418;13.398;2023-08-08T12:29:31;4.97;;;2.20;;
26951;SDS011;14507;52.418;13.398;2023-08-08T12:31:57;3.95;;;1.88;;
26951;SDS011;14507;52.418;13.398;2023-08-08T12:34:22;4.38;;;1.73;;
26951;SDS011;14507;52.418;13.398;2023-08-08T12:36:48;6.28;;;2.10;;
26951;SDS011;14507;52.418;13.398;2023-08-08T12:39:14;5.22;;;1.38;;
26951;SDS011;14507;52.418;13.398;2023-08-08T12:41:40;4.57;;;1.70;;
26951;SDS011;14507;52.418;13.398;2023-08-08T12:44:05;4.13;;;1.70;;
26951;SDS011;14507;52.418;13.398;2023-08-08T12:46:33;6.53;;;1.77;;
26951;SDS011;14507;52.418;13.398;2023-08-08T12:48:58;4.97;;;1.90;;
26951;SDS011;14507;52.418;13.398;2023-08-08T12:51:24;5.57;;;1.83;;
26951;SDS011;14507;52.418;13.398;2023-08-08T12:53:50;3.90;;;1.83;;
26951;SDS011;14507;52.418;13.398;2023-08-08T12:56:16;7.07;;;2.13;;
26951;SDS011;14507;52.418;13.398;2023-08-08T12:58:41;5.47;;;1.65;;
26951;SDS011;14507;52.418;13.398;2023-08-08T13:01:07;4.63;;;1.23;;
26951;SDS011;14507;52.418;13.398;2023-08-08T13:03:33;7.00;;;1.70;;
26951;SDS011;14507;52.418;13.398;2023-08-08T13:05:59;6.28;;;1.63;;
26951;SDS011;14507;52.418;13.398;2023-08-08T13:08:25;5.50;;;1.90;;
26951;SDS011;14507;52.418;13.398;2023-08-08T13:10:51;4.15;;;1.33;;
26951;SDS011;14507;52.418;13.398;2023-08-08T13:13:16;3.70;;;1.60;;
26951;SDS011;14507;52.418;13.398;2023-08-08T13:15:42;3.67;;;1.42;;
26951;SDS011;14507;52.418;13.398;2023-08-08T13:18:08;5.68;;;1.60;;
26951;SDS011;14507;52.418;13.398;2023-08-08T13:20:34;5.30;;;1.60;;
26951;SDS011;14507;52.418;13.398;2023-08-08T13:22:59;5.22;;;1.70;;
26951;SDS011;14507;52.418;13.398;2023-08-08T13:25:25;3.33;;;1.50;;
26951;SDS011;14507;52.418;13.398;2023-08-08T13:27:51;4.35;;;1.70;;
26951;SDS011;14507;52.418;13.398;2023-08-08T13:30:16;4.88;;;2.00;;
26951;SDS011;14507;52.418;13.398;2023-08-08T13:32:42;6.60;;;2.15;;
26951;SDS011;14507;52.418;13.398;2023-08-08T13:35:08;3.35;;;1.50;;
26951;SDS011;14507;52.418;13.398;2023-08-08T13:37:34;4.72;;;1.80;;
26951;SDS011;14507;52.418;13.398;2023-08-08T13:39:59;4.22;;;1.45;;
26951;SDS011;14507;52.418;13.398;2023-08-08T13:42:25;6.18;;;2.63;;
26951;SDS011;14507;52.418;13.398;2023-08-08T13:44:50;5.45;;;1.67;;
26951;SDS011;14507;52.418;13.398;2023-08-08T13:47:16;4.95;;;1.50;;
26951;SDS011;14507;52.418;13.398;2023-08-08T13:49:42;6.10;;;1.38;;
26951;SDS011;14507;52.418;13.398;2023-08-08T13:52:08;3.80;;;1.15;;
26951;SDS011;14507;52.418;13.398;2023-08-08T13:54:34;2.65;;;0.93;;
26951;SDS011;14507;52.418;13.398;2023-08-08T13:57:00;2.90;;;1.30;;
26951;SDS011;14507;52.418;13.398;2023-08-08T13:59:25;2.75;;;1.10;;
26951;SDS011;14507;52.418;13.398;2023-08-08T14:01:51;3.03;;;0.90;;
26951;SDS011;14507;52.418;13.398;2023-08-08T14:04:17;3.75;;;1.20;;
26951;SDS011;14507;52.418;13.398;2023-08-08T14:06:43;3.30;;;1.20;;
26951;SDS011;14507;52.418;13.398;2023-08-08T14:09:10;4.05;;;1.30;;
26951;SDS011;14507;52.418;13.398;2023-08-08T14:11:35;2.17;;;0.90;;
26951;SDS011;14507;52.418;13.398;2023-08-08T14:14:01;2.05;;;1.00;;
26951;SDS011;14507;52.418;13.398;2023-08-08T14:16:30;2.03;;;1.02;;
26951;SDS011;14507;52.418;13.398;2023-08-08T14:18:55;3.45;;;1.38;;
26951;SDS011;14507;52.418;13.398;2023-08-08T14:21:21;5.43;;;1.25;;
26951;SDS011;14507;52.418;13.398;2023-08-08T14:23:46;5.65;;;1.38;;
26951;SDS011;14507;52.418;13.398;2023-08-08T14:26:12;4.22;;;1.38;;
26951;SDS011;14507;52.418;13.398;2023-08-08T14:28:38;2.83;;;1.40;;
26951;SDS011;14507;52.418;13.398;2023-08-08T14:31:03;4.53;;;1.30;;
26951;SDS011;14507;52.418;13.398;2023-08-08T14:33:31;3.03;;;1.53;;
26951;SDS011;14507;52.418;13.398;2023-08-08T14:35:57;3.97;;;1.45;;
26951;SDS011;14507;52.418;13.398;2023-08-08T14:38:23;4.50;;;1.63;;
26951;SDS011;14507;52.418;13.398;2023-08-08T14:40:50;7.40;;;2.40;;